Time;durP1;ratioP1;P1;durP2;ratioP2;P2;SDS_P1;SDS_P2;PMS_P1;PMS_P2;Temp;Humidity;BMP_temperature;BMP_pressure;BME280_temperature;BME280_humidity;BME280_pressure;Samples;Min_cycle;Max_cycle;Signal;HPM_P1;HPM_P2
2022/08/15 00:00:22;;;;;;;5.23;4.17;;;24.90;58.20;;;;;;5055169;28;20474;-56
2022/08/15 00:02:50;;;;;;;4.40;4.00;;;24.90;58.60;;;;;;5054770;28;20450;-56
2022/08/15 00:05:21;;;;;;;7.97;4.67;;;24.90;58.80;;;;;;5054709;28;20997;-56
2022/08/15 00:07:50;;;;;;;4.93;4.47;;;24.90;58.60;;;;;;5055217;28;20842;-56
2022/08/15 00:10:19;;;;;;;4.27;3.97;;;24.90;58.60;;;;;;5054836;28;20477;-56
2022/08/15 00:12:48;;;;;;;4.17;3.87;;;24.80;58.60;;;;;;5054640;28;20430;-56
2022/08/15 00:15:18;;;;;;;4.57;4.17;;;24.80;58.20;;;;;;5054595;28;20481;-57
2022/08/15 00:17:48;;;;;;;6.40;4.07;;;24.80;58.00;;;;;;5055162;28;20465;-56
2022/08/15 00:20:16;;;;;;;5.00;4.60;;;24.90;58.10;;;;;;5054659;28;20471;-57
2022/08/15 00:22:49;;;;;;;4.67;4.30;;;24.80;58.20;;;;;;5054411;28;20488;-57
2022/08/15 00:25:17;;;;;;;5.77;4.40;;;24.70;59.10;;;;;;5053909;28;20454;-56
2022/08/15 00:27:45;;;;;;;4.90;4.50;;;24.70;61.20;;;;;;5054264;28;20445;-56
2022/08/15 00:30:13;;;;;;;4.87;4.50;;;24.50;62.30;;;;;;5054216;28;20552;-56
2022/08/15 00:32:41;;;;;;;7.33;4.90;;;24.40;65.50;;;;;;5054647;28;20495;-56
2022/08/15 00:35:35;;;;;;;4.43;4.03;;;24.40;65.60;;;;;;5054248;28;20567;-57
2022/08/15 00:37:57;;;;;;;6.03;5.03;;;24.40;62.30;;;;;;5054190;28;20536;-56
2022/08/15 00:40:26;;;;;;;6.57;4.27;;;24.70;59.90;;;;;;5054451;28;20873;-56
2022/08/15 00:42:53;;;;;;;7.70;5.67;;;24.60;61.80;;;;;;5054000;28;20492;-57
2022/08/15 00:45:21;;;;;;;5.00;4.60;;;24.40;63.20;;;;;;5054122;28;20442;-57
2022/08/15 00:50:31;;;;;;;5.10;4.70;;;24.40;63.50;;;;;;5052822;28;20536;-57
2022/08/15 00:53:00;;;;;;;5.37;4.73;;;24.20;64.20;;;;;;5053812;28;20528;-57
2022/08/15 00:55:30;;;;;;;4.40;4.00;;;24.30;64.90;;;;;;5053947;28;20481;-57
2022/08/15 00:57:58;;;;;;;4.90;4.47;;;24.20;65.60;;;;;;5053770;28;20429;-57
2022/08/15 01:00:28;;;;;;;4.97;4.57;;;24.20;66.10;;;;;;5053654;28;20508;-56
2022/08/15 01:02:58;;;;;;;5.43;4.90;;;24.10;66.00;;;;;;5054372;28;20869;-56
2022/08/15 01:05:25;;;;;;;4.90;4.50;;;24.10;67.70;;;;;;5054087;28;20461;-56
2022/08/15 01:07:53;;;;;;;4.20;3.80;;;24.10;68.90;;;;;;5053943;28;20515;-57
2022/08/15 01:10:20;;;;;;;4.97;4.60;;;24.10;68.90;;;;;;5053810;28;20477;-58
2022/08/15 01:12:49;;;;;;;4.67;4.23;;;24.00;69.40;;;;;;5054144;28;20922;-57
2022/08/15 01:15:17;;;;;;;5.40;4.90;;;24.00;67.80;;;;;;5053440;28;20513;-56
2022/08/15 01:17:46;;;;;;;4.93;4.43;;;23.90;69.00;;;;;;5053671;28;20872;-56
2022/08/15 01:20:16;;;;;;;7.17;5.00;;;23.90;67.50;;;;;;5053452;28;20576;-56
2022/08/15 01:22:57;;;;;;;4.67;4.37;;;24.00;67.00;;;;;;5053644;28;20426;-56
2022/08/15 01:25:30;;;;;;;4.77;4.27;;;23.90;67.60;;;;;;5053475;28;20504;-57
2022/08/15 01:28:01;;;;;;;4.30;4.00;;;23.90;67.10;;;;;;5053494;28;20429;-56
2022/08/15 01:30:33;;;;;;;5.00;4.50;;;23.90;67.60;;;;;;5053467;28;20882;-57
2022/08/15 01:33:01;;;;;;;5.33;4.83;;;23.90;67.80;;;;;;5053598;28;20518;-57
2022/08/15 01:35:29;;;;;;;5.70;5.10;;;23.90;67.50;;;;;;5053174;28;20536;-56
2022/08/15 01:37:58;;;;;;;4.90;4.50;;;24.00;66.50;;;;;;5052772;28;20499;-56
2022/08/15 01:40:34;;;;;;;5.10;4.40;;;24.10;66.70;;;;;;5053554;28;20480;-56
2022/08/15 01:43:03;;;;;;;13.50;4.70;;;24.00;67.50;;;;;;5053212;28;20872;-56
2022/08/15 01:45:34;;;;;;;10.40;4.90;;;24.00;67.40;;;;;;5052976;28;20441;-57
2022/08/15 01:48:07;;;;;;;5.27;4.37;;;24.10;68.30;;;;;;5052809;28;20538;-56
2022/08/15 01:50:39;;;;;;;6.90;5.33;;;24.10;68.30;;;;;;5053064;28;20523;-57
2022/08/15 01:53:12;;;;;;;6.37;5.10;;;24.00;69.10;;;;;;5053071;28;20457;-57
2022/08/15 01:55:46;;;;;;;5.40;5.00;;;24.00;70.00;;;;;;5052821;28;20519;-56
2022/08/15 01:58:13;;;;;;;8.63;4.33;;;23.80;71.00;;;;;;5053160;28;20461;-57
2022/08/15 02:00:51;;;;;;;5.13;4.70;;;23.90;71.40;;;;;;5052964;28;20547;-56
2022/08/15 02:03:18;;;;;;;5.30;4.83;;;23.90;71.70;;;;;;5052970;28;20436;-56
2022/08/15 02:05:46;;;;;;;7.20;5.47;;;23.90;73.30;;;;;;5052747;28;20536;-56
2022/08/15 02:08:13;;;;;;;4.70;4.30;;;23.90;72.90;;;;;;5052683;28;20484;-56
2022/08/15 02:10:43;;;;;;;6.13;4.83;;;23.90;72.90;;;;;;5053144;28;20569;-56
2022/08/15 02:13:10;;;;;;;5.87;4.20;;;23.70;74.70;;;;;;5053074;28;20429;-56
2022/08/15 02:15:38;;;;;;;5.07;4.57;;;23.80;75.90;;;;;;5052541;28;20572;-57
2022/08/15 02:18:05;;;;;;;4.83;4.43;;;23.80;77.50;;;;;;5053074;28;20449;-57
2022/08/15 02:20:33;;;;;;;6.40;5.10;;;23.70;78.70;;;;;;5053279;28;20469;-56
2022/08/15 02:23:00;;;;;;;5.43;5.03;;;23.70;79.30;;;;;;5052892;28;20477;-57
2022/08/15 02:25:28;;;;;;;5.13;4.50;;;23.70;80.30;;;;;;5052816;28;20449;-56
2022/08/15 02:27:56;;;;;;;5.90;5.07;;;23.50;80.10;;;;;;5052673;28;20445;-56
2022/08/15 02:30:27;;;;;;;6.47;4.60;;;23.60;81.10;;;;;;5052484;28;20995;-56
2022/08/15 02:32:56;;;;;;;5.10;4.70;;;23.70;78.40;;;;;;5052549;28;20458;-57
2022/08/15 02:35:24;;;;;;;7.30;5.47;;;;;;;;;;5052833;28;20531;-56
2022/08/15 02:37:52;;;;;;;7.13;4.90;;;23.50;82.10;;;;;;5052469;28;20895;-57
2022/08/15 02:40:20;;;;;;;6.80;5.83;;;23.40;83.00;;;;;;5052721;28;20477;-56
2022/08/15 02:42:47;;;;;;;6.43;5.03;;;23.30;84.40;;;;;;5052655;28;20434;-56
2022/08/15 02:45:17;;;;;;;6.60;4.90;;;23.30;85.10;;;;;;5052390;28;20510;-56
2022/08/15 02:47:44;;;;;;;4.30;3.90;;;23.40;82.40;;;;;;5053057;28;20576;-56
2022/08/15 02:50:15;;;;;;;4.97;4.57;;;23.40;85.10;;;;;;5056247;28;20469;-57
2022/08/15 02:52:44;;;;;;;5.20;4.70;;;23.40;85.60;;;;;;5056566;28;20484;-56
2022/08/15 02:55:12;;;;;;;5.97;4.83;;;23.50;81.60;;;;;;5056143;28;20437;-57
2022/08/15 02:57:40;;;;;;;5.10;4.17;;;23.50;84.70;;;;;;5056057;28;20445;-57
2022/08/15 03:00:11;;;;;;;8.10;4.83;;;23.40;85.50;;;;;;5056018;28;20465;-57
2022/08/15 03:02:53;;;;;;;6.17;4.37;;;23.50;85.80;;;;;;5055966;28;20520;-56
2022/08/15 03:05:21;;;;;;;5.27;4.70;;;23.30;86.80;;;;;;5056214;28;20429;-56
2022/08/15 03:07:49;;;;;;;5.07;4.13;;;23.40;82.70;;;;;;5055802;28;20536;-56
2022/08/15 03:10:17;;;;;;;6.97;4.30;;;23.40;86.90;;;;;;5056093;28;20457;-56
2022/08/15 03:12:53;;;;;;;7.80;4.47;;;23.40;87.80;;;;;;5056048;28;20519;-56
2022/08/15 03:15:22;;;;;;;5.30;4.80;;;23.50;87.60;;;;;;5055930;28;20429;-57
2022/08/15 03:17:50;;;;;;;6.30;5.00;;;23.50;84.90;;;;;;5055950;28;20555;-56
2022/08/15 03:20:19;;;;;;;4.80;4.33;;;23.40;88.90;;;;;;5055686;28;20552;-57
2022/08/15 03:22:49;;;;;;;5.93;5.20;;;23.30;90.10;;;;;;5055554;28;20449;-57
2022/08/15 03:25:20;;;;;;;4.30;3.90;;;23.20;89.70;;;;;;5055508;28;20495;-57
2022/08/15 03:27:47;;;;;;;4.93;3.90;;;23.30;87.90;;;;;;5055441;28;20445;-57
2022/08/15 03:30:16;;;;;;;5.27;4.37;;;23.30;88.50;;;;;;5055361;28;20561;-56
2022/08/15 03:32:46;;;;;;;4.30;4.00;;;23.10;89.90;;;;;;5055357;28;20934;-56
2022/08/15 03:35:15;;;;;;;4.70;4.23;;;23.00;90.20;;;;;;5055572;28;20449;-56
2022/08/15 03:37:42;;;;;;;4.80;4.33;;;23.00;90.50;;;;;;5055313;28;21071;-56
2022/08/15 03:40:11;;;;;;;4.50;4.10;;;22.90;91.40;;;;;;5055489;28;20473;-56
2022/08/15 03:42:38;;;;;;;5.03;4.17;;;23.00;91.00;;;;;;5055194;28;20492;-56
2022/08/15 03:45:11;;;;;;;6.63;4.30;;;23.10;90.00;;;;;;5055402;28;20844;-56
2022/08/15 03:47:38;;;;;;;4.40;4.00;;;23.10;91.30;;;;;;5054838;28;20418;-56
2022/08/15 03:50:07;;;;;;;4.60;4.20;;;23.10;91.60;;;;;;5055301;28;20556;-57
2022/08/15 03:52:50;;;;;;;4.90;4.10;;;23.00;92.40;;;;;;5055028;28;20481;-57
2022/08/15 03:55:18;;;;;;;5.03;4.30;;;22.90;93.40;;;;;;5055087;28;20434;-56
2022/08/15 03:57:46;;;;;;;6.33;4.37;;;22.90;93.50;;;;;;5054951;28;21015;-57
2022/08/15 04:00:16;;;;;;;5.13;4.63;;;22.90;94.20;;;;;;5053937;28;20523;-56
2022/08/15 04:02:44;;;;;;;4.37;3.97;;;22.90;94.30;;;;;;5054858;28;20540;-57
2022/08/15 04:05:12;;;;;;;4.63;4.27;;;23.00;92.80;;;;;;5055171;28;20520;-56
2022/08/15 04:07:41;;;;;;;5.20;4.50;;;23.00;94.30;;;;;;5055028;28;20452;-57
2022/08/15 04:10:12;;;;;;;5.27;4.03;;;22.80;95.70;;;;;;5054748;28;20599;-56
2022/08/15 04:12:41;;;;;;;4.13;3.83;;;22.70;96.10;;;;;;5055105;28;20516;-56
2022/08/15 04:15:12;;;;;;;3.97;3.67;;;22.80;95.80;;;;;;5055078;28;20952;-56
2022/08/15 04:17:40;;;;;;;5.80;4.70;;;22.70;96.30;;;;;;5054805;28;20567;-56
2022/08/15 04:20:09;;;;;;;5.30;4.80;;;22.60;96.80;;;;;;5054637;28;20461;-56
2022/08/15 04:22:41;;;;;;;5.23;4.83;;;22.50;97.30;;;;;;5054576;28;20953;-56
2022/08/15 04:25:13;;;;;;;6.33;5.43;;;22.50;97.60;;;;;;5054793;28;20454;-56
2022/08/15 04:27:42;;;;;;;3.70;3.40;;;22.60;97.50;;;;;;5054510;28;20461;-57
2022/08/15 04:30:11;;;;;;;5.27;4.23;;;22.60;96.80;;;;;;5054510;28;20997;-56
2022/08/15 04:32:39;;;;;;;4.07;3.50;;;22.60;97.60;;;;;;5054600;28;20507;-56
2022/08/15 04:35:10;;;;;;;3.80;3.40;;;22.40;97.40;;;;;;5054465;28;20445;-56
2022/08/15 04:37:42;;;;;;;4.07;3.73;;;22.50;97.40;;;;;;5054067;28;20465;-57
2022/08/15 04:40:14;;;;;;;11.83;3.30;;;22.50;97.30;;;;;;5054149;28;20481;-56
2022/08/15 04:42:49;;;;;;;5.80;3.20;;;22.40;97.10;;;;;;5054112;28;20495;-56
2022/08/15 04:45:17;;;;;;;4.70;3.47;;;22.50;97.00;;;;;;5053909;28;20543;-56
2022/08/15 04:47:44;;;;;;;3.23;2.90;;;22.40;97.20;;;;;;5053651;28;20446;-56
2022/08/15 04:50:12;;;;;;;4.27;3.33;;;22.50;96.90;;;;;;5054138;28;20495;-56
2022/08/15 04:52:45;;;;;;;7.10;3.23;;;22.40;96.70;;;;;;5053925;28;20467;-57
2022/08/15 04:55:14;;;;;;;6.50;4.10;;;22.50;96.60;;;;;;5053837;28;20708;-56
2022/08/15 04:57:42;;;;;;;4.20;3.47;;;22.60;96.30;;;;;;5053836;28;20485;-56
2022/08/15 05:00:13;;;;;;;3.90;3.00;;;22.50;97.10;;;;;;5054088;28;20663;-56
2022/08/15 05:02:41;;;;;;;3.40;3.20;;;22.50;96.60;;;;;;5053968;28;20503;-57
2022/08/15 05:05:10;;;;;;;4.33;3.57;;;22.40;97.40;;;;;;5053772;28;20454;-56
2022/08/15 05:07:37;;;;;;;3.70;3.40;;;22.30;97.90;;;;;;5053967;28;20449;-56
2022/08/15 05:10:08;;;;;;;3.80;3.50;;;22.20;98.10;;;;;;5053497;28;20493;-56
2022/08/15 05:12:38;;;;;;;5.80;3.30;;;22.10;98.20;;;;;;5053696;28;20429;-56
2022/08/15 05:15:07;;;;;;;3.50;3.20;;;22.10;98.20;;;;;;5053696;28;20524;-57
2022/08/15 05:17:34;;;;;;;4.13;3.40;;;22.00;98.70;;;;;;5053700;28;20481;-56
2022/08/15 05:20:01;;;;;;;3.30;3.00;;;21.90;99.20;;;;;;5053238;28;20628;-56
2022/08/15 05:22:29;;;;;;;3.80;3.40;;;22.10;99.00;;;;;;5053217;28;20515;-56
2022/08/15 05:24:58;;;;;;;3.90;3.13;;;22.20;98.80;;;;;;5053695;28;20467;-56
2022/08/15 05:27:25;;;;;;;4.80;3.60;;;22.20;98.80;;;;;;5053114;28;20451;-56
2022/08/15 05:29:54;;;;;;;3.60;3.30;;;22.00;99.10;;;;;;5053225;28;20433;-56
2022/08/15 05:32:21;;;;;;;3.47;3.17;;;22.20;97.80;;;;;;5053543;28;20528;-56
2022/08/15 05:34:49;;;;;;;3.13;2.93;;;22.30;98.50;;;;;;5053488;28;20947;-56
2022/08/15 05:37:17;;;;;;;5.03;3.53;;;22.30;98.30;;;;;;5052983;28;20504;-56
2022/08/15 05:39:45;;;;;;;3.70;3.03;;;22.30;98.60;;;;;;5052990;28;20488;-56
2022/08/15 05:42:25;;;;;;;3.40;3.10;;;22.20;98.90;;;;;;5053166;28;20505;-56
2022/08/15 05:45:02;;;;;;;5.10;3.33;;;22.20;99.30;;;;;;5053181;28;20541;-56
2022/08/15 05:47:34;;;;;;;6.57;3.70;;;22.20;99.30;;;;;;5052675;28;20483;-56
2022/08/15 05:50:09;;;;;;;5.50;2.93;;;22.10;98.70;;;;;;5032917;28;20453;-56
2022/08/15 05:52:48;;;;;;;4.00;3.60;;;22.00;99.90;;;;;;5032854;28;20476;-56
2022/08/15 05:55:23;;;;;;;3.80;3.13;;;22.20;99.90;;;;;;5033142;28;20830;-56
2022/08/15 05:58:09;;;;;;;3.80;3.13;;;22.00;99.90;;;;;;5032649;28;20523;-56
2022/08/15 06:00:41;;;;;;;3.53;3.00;;;22.00;99.90;;;;;;5032969;28;20500;-56
2022/08/15 06:03:14;;;;;;;5.60;3.80;;;21.80;99.90;;;;;;5032574;28;20434;-56
2022/08/15 06:05:47;;;;;;;3.83;3.10;;;22.00;99.90;;;;;;5032855;28;20514;-56
2022/08/15 06:08:18;;;;;;;4.63;3.23;;;22.00;99.90;;;;;;5032474;28;20417;-57
2022/08/15 06:10:49;;;;;;;4.93;3.80;;;22.20;99.90;;;;;;5032690;28;20536;-57
2022/08/15 06:13:23;;;;;;;3.27;3.07;;;22.20;99.90;;;;;;5032380;28;20528;-56
2022/08/15 06:15:58;;;;;;;3.50;3.20;;;22.10;99.90;;;;;;5032859;28;20461;-56
2022/08/15 06:18:27;;;;;;;5.20;3.10;;;22.00;99.90;;;;;;5032466;28;20894;-56
2022/08/15 06:21:01;;;;;;;2.80;2.60;;;22.10;99.90;;;;;;5032560;28;20470;-56
2022/08/15 06:23:38;;;;;;;3.47;3.17;;;22.30;99.90;;;;;;5034899;28;20430;-56
2022/08/15 06:26:21;;;;;;;4.63;3.70;;;22.40;99.90;;;;;;5036903;28;20422;-56
2022/08/15 06:29:05;;;;;;;3.07;2.87;;;22.20;99.90;;;;;;5036595;28;20437;-56
2022/08/15 06:31:38;;;;;;;4.30;3.30;;;22.00;99.90;;;;;;5036636;28;20462;-56
2022/08/15 06:34:14;;;;;;;3.00;2.80;;;22.10;99.90;;;;;;5036234;28;20433;-56
2022/08/15 06:36:50;;;;;;;3.50;3.20;;;22.00;99.90;;;;;;5036247;28;20430;-57
2022/08/15 06:39:29;;;;;;;6.30;3.37;;;21.80;99.90;;;;;;5035957;28;20940;-56
2022/08/15 06:42:04;;;;;;;3.33;3.03;;;22.00;99.90;;;;;;5036301;28;20466;-56
2022/08/15 06:44:33;;;;;;;4.83;3.83;;;21.70;99.90;;;;;;5036068;28;20488;-56
2022/08/15 06:47:05;;;;;;;3.20;2.90;;;21.80;99.90;;;;;;5036444;28;20511;-57
2022/08/15 06:49:35;;;;;;;5.40;2.67;;;21.70;99.90;;;;;;5052518;28;20534;-56
2022/08/15 06:52:18;;;;;;;3.33;2.57;;;21.60;99.90;;;;;;5056096;28;20493;-56
2022/08/15 06:58:04;;;;;;;3.87;2.73;;;22.00;99.90;;;;;;5050010;28;20481;-55
2022/08/15 07:01:02;;;;;;;3.60;2.50;;;22.10;99.90;;;;;;5056140;28;20476;-56
2022/08/15 07:03:59;;;;;;;5.43;3.97;;;22.50;99.90;;;;;;5055257;28;20454;-56
2022/08/15 07:06:44;;;;;;;3.53;3.23;;;22.30;99.90;;;;;;5055659;28;20942;-56
2022/08/15 07:09:33;;;;;;;4.80;3.33;;;22.70;99.90;;;;;;5055765;28;20452;-56
2022/08/15 07:12:23;;;;;;;3.23;2.87;;;22.80;99.90;;;;;;5055773;28;20465;-56
2022/08/15 07:14:58;;;;;;;3.30;3.00;;;22.60;99.90;;;;;;5055617;28;20429;-56
2022/08/15 07:17:32;;;;;;;5.40;3.50;;;22.70;99.60;;;;;;5055532;28;20917;-56
2022/08/15 07:20:01;;;;;;;5.93;3.50;;;22.80;99.90;;;;;;5055384;28;20466;-56
2022/08/15 07:22:30;;;;;;;3.93;2.87;;;22.80;99.90;;;;;;5055464;28;20499;-56
2022/08/15 07:24:58;;;;;;;5.53;3.20;;;22.90;99.90;;;;;;5055513;28;20929;-57
2022/08/15 07:27:30;;;;;;;3.73;2.90;;;23.10;99.40;;;;;;5055261;28;20445;-56
2022/08/15 07:30:00;;;;;;;3.50;3.20;;;23.10;99.80;;;;;;5055626;28;20840;-57
2022/08/15 07:32:38;;;;;;;3.20;2.90;;;23.10;99.00;;;;;;5055714;28;20449;-56
2022/08/15 07:35:19;;;;;;;3.13;2.60;;;23.10;99.20;;;;;;5054139;28;20429;-56
2022/08/15 07:37:56;;;;;;;2.90;2.70;;;22.90;99.40;;;;;;5055368;28;20523;-56
2022/08/15 07:40:30;;;;;;;2.73;2.53;;;23.00;99.00;;;;;;5055302;28;20925;-56
2022/08/15 07:42:58;;;;;;;6.47;3.03;;;23.00;98.50;;;;;;5054950;28;20429;-57
2022/08/15 07:45:31;;;;;;;3.10;2.90;;;23.00;98.70;;;;;;5054975;28;20485;-56
2022/08/15 07:48:02;;;;;;;2.50;2.30;;;23.20;98.20;;;;;;5054903;28;20973;-56
2022/08/15 07:50:40;;;;;;;4.03;2.53;;;23.40;98.10;;;;;;5055192;28;20807;-56
2022/08/15 07:53:16;;;;;;;2.87;2.60;;;23.60;97.90;;;;;;5054774;28;20429;-56
2022/08/15 07:56:04;;;;;;;4.23;2.60;;;23.70;97.80;;;;;;5054852;28;20429;-56
2022/08/15 07:58:33;;;;;;;3.93;2.97;;;23.70;97.70;;;;;;5054723;28;20469;-56
2022/08/15 08:01:11;;;;;;;2.90;2.70;;;23.50;97.50;;;;;;5054553;28;20511;-56
2022/08/15 08:03:40;;;;;;;7.40;3.27;;;23.70;98.00;;;;;;5054774;28;20441;-57
2022/08/15 08:06:19;;;;;;;3.27;3.00;;;23.70;97.40;;;;;;5054920;28;20456;-56
2022/08/15 08:08:55;;;;;;;2.97;2.70;;;23.80;97.10;;;;;;5054650;28;20456;-57
2022/08/15 08:11:30;;;;;;;2.73;2.53;;;23.90;96.70;;;;;;5054401;28;20531;-56
2022/08/15 08:14:07;;;;;;;2.87;2.60;;;23.50;96.50;;;;;;5054501;28;20457;-56
2022/08/15 08:16:38;;;;;;;3.20;2.60;;;23.90;96.10;;;;;;5054764;28;20495;-56
2022/08/15 08:19:11;;;;;;;2.87;2.30;;;24.40;95.20;;;;;;5054494;28;20465;-56
2022/08/15 08:21:50;;;;;;;4.57;3.17;;;25.10;94.70;;;;;;5054344;28;20503;-56
2022/08/15 08:24:26;;;;;;;3.90;2.67;;;26.10;93.20;;;;;;5054189;28;20890;-56
2022/08/15 08:27:01;;;;;;;2.83;2.63;;;27.10;90.80;;;;;;5054575;28;20472;-57
2022/08/15 08:29:34;;;;;;;2.40;2.20;;;27.90;88.80;;;;;;5054423;28;20925;-56
2022/08/15 08:32:12;;;;;;;3.40;2.50;;;28.00;85.20;;;;;;5054232;28;20466;-56
2022/08/15 08:34:47;;;;;;;2.90;2.20;;;27.50;85.40;;;;;;5054485;28;20433;-57
2022/08/15 08:37:24;;;;;;;2.60;2.40;;;27.90;84.50;;;;;;5054122;28;20409;-57
2022/08/15 08:41:24;;;;;;;2.70;2.10;;;28.50;80.00;;;;;;5053976;28;20531;-57
2022/08/15 08:42:51;;;;;;;2.70;2.50;;;28.90;79.60;;;;;;5053925;28;20434;-57
2022/08/15 08:45:25;;;;;;;2.50;2.30;;;28.80;78.80;;;;;;5053816;28;20436;-56
2022/08/15 08:48:23;;;;;;;3.40;2.67;;;29.90;74.80;;;;;;5053924;28;20550;-56
2022/08/15 08:51:00;;;;;;;3.60;2.40;;;29.10;74.50;;;;;;5053643;28;20477;-56
2022/08/15 08:53:37;;;;;;;2.70;2.50;;;27.70;77.40;;;;;;5054128;28;20436;-56
2022/08/15 08:56:13;;;;;;;2.83;2.43;;;27.90;78.20;;;;;;5054045;28;20505;-57
2022/08/15 08:58:46;;;;;;;2.43;2.23;;;27.80;77.00;;;;;;5053977;28;20557;-56
2022/08/15 09:01:16;;;;;;;2.70;2.40;;;27.90;77.90;;;;;;5053567;28;20465;-56
2022/08/15 09:03:49;;;;;;;5.80;2.70;;;28.20;76.20;;;;;;5053748;28;20433;-57
2022/08/15 09:06:22;;;;;;;2.63;2.33;;;28.30;76.70;;;;;;5053518;28;20432;-56
2022/08/15 09:08:55;;;;;;;2.40;2.10;;;28.30;73.40;;;;;;5053709;28;20425;-56
2022/08/15 09:11:27;;;;;;;4.20;2.27;;;27.80;74.00;;;;;;5054142;28;20512;-56
2022/08/15 09:13:56;;;;;;;2.53;2.30;;;27.00;75.10;;;;;;5053411;28;20430;-56
2022/08/15 09:16:30;;;;;;;2.70;2.50;;;26.60;76.40;;;;;;5053719;28;20449;-56
2022/08/15 09:19:03;;;;;;;3.40;3.07;;;27.30;75.80;;;;;;5053416;28;20515;-57
2022/08/15 09:21:31;;;;;;;2.50;2.13;;;28.40;74.70;;;;;;5053233;28;20968;-57
2022/08/15 09:24:00;;;;;;;2.30;2.10;;;28.90;72.70;;;;;;5053402;28;20507;-56
2022/08/15 09:26:38;;;;;;;3.63;3.33;;;28.50;74.60;;;;;;5053146;28;20454;-56
2022/08/15 09:29:09;;;;;;;3.17;2.90;;;28.40;76.30;;;;;;5053101;28;20432;-57
2022/08/15 09:31:40;;;;;;;3.60;3.27;;;28.40;77.60;;;;;;5053118;28;20548;-56
2022/08/15 09:34:35;;;;;;;3.10;2.60;;;28.20;75.50;;;;;;5052998;28;20920;-56
2022/08/15 09:37:16;;;;;;;3.97;2.77;;;28.00;76.30;;;;;;5053491;28;20487;-56
2022/08/15 09:40:29;;;;;;;3.03;2.50;;;28.70;75.10;;;;;;5053334;28;20547;-55
2022/08/15 09:43:17;;;;;;;2.67;2.43;;;29.00;73.40;;;;;;5052642;28;20520;-56
2022/08/15 09:46:13;;;;;;;3.50;2.63;;;29.60;72.10;;;;;;5053156;28;20456;-56
2022/08/15 09:48:56;;;;;;;3.17;2.90;;;30.20;70.30;;;;;;5052529;28;20477;-56
2022/08/15 09:52:03;;;;;;;3.60;3.30;;;29.50;71.10;;;;;;5052356;28;20465;-55
2022/08/15 09:54:45;;;;;;;2.97;2.67;;;29.60;70.90;;;;;;5052716;28;20791;-55
2022/08/15 09:57:24;;;;;;;2.70;2.50;;;;;;;;;;5052431;28;20436;-56
2022/08/15 09:59:57;;;;;;;2.60;2.40;;;31.00;66.40;;;;;;5052918;28;20445;-56
2022/08/15 10:02:32;;;;;;;3.40;2.10;;;30.00;67.40;;;;;;5052762;28;20421;-56
2022/08/15 10:05:23;;;;;;;2.60;2.40;;;29.20;68.40;;;;;;5052630;28;20430;-56
2022/08/15 10:07:52;;;;;;;3.23;2.30;;;28.90;70.30;;;;;;5052658;28;20437;-56
2022/08/15 10:10:24;;;;;;;2.77;2.57;;;28.30;71.10;;;;;;5052784;28;20481;-56
2022/08/15 10:13:25;;;;;;;2.80;2.60;;;28.70;72.50;;;;;;5052687;28;20434;-56
2022/08/15 10:15:53;;;;;;;2.43;2.23;;;29.70;68.50;;;;;;5052375;28;20491;-56
2022/08/15 10:18:58;;;;;;;2.70;2.50;;;30.70;68.10;;;;;;5052773;28;20843;-56
2022/08/15 10:21:33;;;;;;;2.53;2.33;;;;;;;;;;5052776;28;20469;-56
2022/08/15 10:24:01;;;;;;;2.70;2.50;;;31.60;61.80;;;;;;5052913;28;20429;-57
2022/08/15 10:26:29;;;;;;;5.77;2.30;;;31.40;60.60;;;;;;5052860;28;20453;-57
2022/08/15 10:29:22;;;;;;;2.87;2.67;;;31.70;60.70;;;;;;5052451;28;20536;-57
2022/08/15 10:31:53;;;;;;;6.00;2.93;;;31.10;61.40;;;;;;5052181;28;20552;-56
2022/08/15 10:34:37;;;;;;;2.83;2.63;;;30.80;63.70;;;;;;5052635;28;20902;-56
2022/08/15 10:37:16;;;;;;;3.27;2.97;;;29.50;66.20;;;;;;5052381;28;20444;-57
2022/08/15 10:40:07;;;;;;;4.07;3.00;;;30.10;65.00;;;;;;5052345;28;20488;-56
2022/08/15 10:42:44;;;;;;;2.93;2.73;;;31.10;65.00;;;;;;5050030;28;20483;-56
2022/08/15 10:45:21;;;;;;;3.07;2.87;;;30.10;65.10;;;;;;5052268;28;20422;-57
2022/08/15 10:47:58;;;;;;;3.30;2.30;;;31.20;63.40;;;;;;5052439;28;20429;-56
2022/08/15 10:50:36;;;;;;;3.30;2.90;;;31.90;59.90;;;;;;5052391;28;20461;-56
2022/08/15 10:53:13;;;;;;;3.90;2.83;;;32.60;60.10;;;;;;5052406;28;20979;-56
2022/08/15 10:55:42;;;;;;;3.00;2.40;;;32.30;58.40;;;;;;5052515;28;20437;-56
2022/08/15 10:58:15;;;;;;;3.13;2.83;;;32.30;58.10;;;;;;5052453;28;20882;-57
2022/08/15 11:00:47;;;;;;;2.40;2.20;;;32.30;56.80;;;;;;5052410;28;20511;-57
2022/08/15 11:03:19;;;;;;;2.50;2.30;;;31.90;57.10;;;;;;5052334;28;20425;-56
2022/08/15 11:05:58;;;;;;;2.27;2.07;;;31.30;57.90;;;;;;5052398;28;20902;-57
2022/08/15 11:08:26;;;;;;;3.20;2.60;;;30.50;58.90;;;;;;5052862;28;20524;-56
2022/08/15 11:11:00;;;;;;;3.00;2.70;;;30.10;59.20;;;;;;5056162;28;20511;-56
2022/08/15 11:13:31;;;;;;;2.77;2.57;;;29.70;59.80;;;;;;5055943;28;20429;-56
2022/08/15 11:16:10;;;;;;;2.80;2.60;;;29.10;60.00;;;;;;5055972;28;20429;-56
2022/08/15 11:18:44;;;;;;;2.80;2.60;;;29.20;60.80;;;;;;5055934;28;20492;-56
2022/08/15 11:21:36;;;;;;;3.37;2.53;;;30.20;60.00;;;;;;5055660;28;20473;-56
2022/08/15 11:24:06;;;;;;;2.50;2.30;;;31.00;58.10;;;;;;5055681;28;20430;-57
2022/08/15 11:26:37;;;;;;;3.40;3.10;;;30.90;58.00;;;;;;5055864;28;20453;-56
2022/08/15 11:29:14;;;;;;;3.30;3.00;;;31.20;57.80;;;;;;5055872;28;20533;-56
2022/08/15 11:31:49;;;;;;;3.03;2.80;;;32.30;57.20;;;;;;5055505;28;20464;-56
2022/08/15 11:34:23;;;;;;;3.73;2.37;;;32.50;56.80;;;;;;5055509;28;20479;-56
2022/08/15 11:36:52;;;;;;;2.33;2.13;;;32.70;56.40;;;;;;5055315;28;20461;-56
2022/08/15 11:39:21;;;;;;;2.70;2.50;;;31.70;56.50;;;;;;5055008;28;21004;-56
2022/08/15 11:41:53;;;;;;;6.20;2.90;;;30.70;58.00;;;;;;5055309;28;20989;-57
2022/08/15 11:44:22;;;;;;;2.47;2.27;;;31.10;57.80;;;;;;5055554;28;20433;-56
2022/08/15 11:46:52;;;;;;;3.00;2.60;;;31.40;58.00;;;;;;5055148;28;20498;-57
2022/08/15 11:49:30;;;;;;;3.40;3.03;;;31.60;57.10;;;;;;5055001;28;20476;-56
2022/08/15 11:52:06;;;;;;;2.63;2.43;;;31.60;56.80;;;;;;5055005;28;20466;-56
2022/08/15 11:54:34;;;;;;;3.90;3.13;;;31.00;57.70;;;;;;5055342;28;20516;-56
2022/08/15 11:57:05;;;;;;;2.83;2.63;;;30.50;57.60;;;;;;5054852;28;20457;-56
2022/08/15 11:59:35;;;;;;;2.80;2.53;;;30.10;57.60;;;;;;5054826;28;20472;-57
2022/08/15 12:02:09;;;;;;;3.50;3.20;;;29.70;58.30;;;;;;5055165;28;20863;-56
2022/08/15 12:04:39;;;;;;;2.50;2.30;;;29.40;58.30;;;;;;5055200;28;20425;-56
2022/08/15 12:07:16;;;;;;;2.40;2.20;;;30.10;57.80;;;;;;5054706;28;20540;-56
2022/08/15 12:09:56;;;;;;;2.13;2.00;;;30.50;56.90;;;;;;5054684;28;20449;-56
2022/08/15 12:12:49;;;;;;;2.80;2.33;;;31.20;56.40;;;;;;5054951;28;20425;-57
2022/08/15 12:15:19;;;;;;;4.50;2.73;;;31.70;55.70;;;;;;5051683;28;20510;-56
2022/08/15 12:18:06;;;;;;;3.17;2.87;;;31.50;55.20;;;;;;5054564;28;20426;-56
2022/08/15 12:20:41;;;;;;;5.10;3.13;;;31.80;54.30;;;;;;5053545;28;20902;-56
2022/08/15 12:23:35;;;;;;;3.00;2.80;;;32.10;54.40;;;;;;5054312;28;20437;-57
2022/08/15 12:26:05;;;;;;;2.83;2.40;;;31.80;54.40;;;;;;5054147;28;20492;-57
2022/08/15 12:28:33;;;;;;;3.30;2.73;;;32.70;54.30;;;;;;5054334;28;20455;-56
2022/08/15 12:31:05;;;;;;;3.50;2.60;;;32.60;54.20;;;;;;5053940;28;20469;-56
2022/08/15 12:33:34;;;;;;;4.07;2.77;;;31.90;54.30;;;;;;5053901;28;20975;-56
2022/08/15 12:36:02;;;;;;;3.20;2.90;;;31.50;55.20;;;;;;5054043;28;20448;-57
2022/08/15 12:38:30;;;;;;;5.00;2.53;;;31.00;55.80;;;;;;5054094;28;20464;-56
2022/08/15 12:40:57;;;;;;;3.23;3.03;;;30.50;56.40;;;;;;5054317;28;20477;-56
2022/08/15 12:43:24;;;;;;;3.23;3.00;;;30.00;56.80;;;;;;5054153;28;20514;-56
2022/08/15 12:45:52;;;;;;;3.73;2.43;;;30.00;56.90;;;;;;5054208;28;20454;-56
2022/08/15 12:48:23;;;;;;;4.57;3.33;;;30.00;57.60;;;;;;5053803;28;20481;-56
2022/08/15 12:50:52;;;;;;;3.80;3.03;;;29.90;57.60;;;;;;5053976;28;20501;-56
2022/08/15 12:53:19;;;;;;;8.90;3.37;;;29.80;58.00;;;;;;5053851;28;20503;-56
2022/08/15 12:55:49;;;;;;;3.80;2.77;;;29.80;58.20;;;;;;5053835;28;20452;-56
2022/08/15 12:58:18;;;;;;;5.67;2.97;;;29.50;57.90;;;;;;5053612;28;20449;-56
2022/08/15 13:00:47;;;;;;;3.20;2.90;;;29.50;58.10;;;;;;5053768;28;20489;-57
2022/08/15 13:03:19;;;;;;;3.20;2.90;;;29.10;58.10;;;;;;5054044;28;20507;-57
2022/08/15 13:05:50;;;;;;;3.40;3.10;;;28.80;58.20;;;;;;5053714;28;20430;-56
2022/08/15 13:08:19;;;;;;;3.20;2.90;;;28.80;58.40;;;;;;5053435;28;20449;-56
2022/08/15 13:10:46;;;;;;;4.43;3.50;;;28.80;58.00;;;;;;5054000;28;20908;-56
2022/08/15 13:13:14;;;;;;;3.70;2.73;;;28.60;58.20;;;;;;5053656;28;20449;-56
2022/08/15 13:15:42;;;;;;;3.50;3.20;;;28.50;58.60;;;;;;5053400;28;20445;-56
2022/08/15 13:18:11;;;;;;;3.97;3.50;;;28.50;59.00;;;;;;5053258;28;20453;-56
2022/08/15 13:23:38;;;;;;;8.63;3.70;;;28.30;59.20;;;;;;5053576;28;20429;-56
2022/08/15 13:26:08;;;;;;;4.43;3.20;;;28.30;59.40;;;;;;5053410;28;20459;-57